Time;durP1;ratioP1;P1;durP2;ratioP2;P2;SDS_P1;SDS_P2;PMS_P1;PMS_P2;Temp;Humidity;BMP_temperature;BMP_pressure;BME280_temperature;BME280_humidity;BME280_pressure;Samples;Min_cycle;Max_cycle;Signal;HPM_P1;HPM_P2
2021/12/15 00:00:36;;;;;;;25.90;9.75;;;10.00;99.90;;;;;;20673546;28;20038;-43
2021/12/15 00:10:39;;;;;;;33.83;9.98;;;9.90;99.90;;;;;;20675172;28;20053;-43
2021/12/15 00:20:43;;;;;;;27.50;9.63;;;9.90;99.90;;;;;;20679863;28;20068;-43
2021/12/15 00:30:44;;;;;;;27.40;11.60;;;9.90;99.90;;;;;;20675543;28;20053;-43
2021/12/15 00:40:45;;;;;;;33.95;10.02;;;9.90;99.90;;;;;;20679602;28;20371;-43
2021/12/15 00:50:47;;;;;;;35.17;11.02;;;9.80;99.90;;;;;;20660674;28;20053;-43
2021/12/15 01:00:52;;;;;;;31.13;10.80;;;9.80;99.90;;;;;;20646118;28;20049;-43
2021/12/15 01:11:07;;;;;;;27.52;10.43;;;9.80;99.90;;;;;;20676772;28;20045;-43
2021/12/15 01:21:10;;;;;;;31.75;9.55;;;9.80;99.90;;;;;;20677015;28;20038;-43
2021/12/15 01:31:11;;;;;;;27.13;10.95;;;9.70;99.90;;;;;;20673702;28;20513;-43
2021/12/15 01:41:19;;;;;;;29.33;9.57;;;9.80;99.90;;;;;;20675977;28;20045;-43
2021/12/15 01:51:21;;;;;;;36.65;11.43;;;9.80;99.90;;;;;;20676444;28;20038;-43
2021/12/15 02:01:22;;;;;;;31.35;11.63;;;9.80;99.90;;;;;;20689595;28;20038;-43
2021/12/15 02:11:25;;;;;;;26.83;10.80;;;9.80;99.90;;;;;;20690623;28;20041;-43
2021/12/15 02:21:26;;;;;;;29.02;10.68;;;9.80;99.90;;;;;;20691468;28;20049;-43
2021/12/15 02:41:35;;;;;;;;;;;9.80;99.90;;;;;;20688106;28;20052;-43
2021/12/15 02:51:38;;;;;;;25.48;8.95;;;9.80;99.90;;;;;;20682063;28;19925;-43
2021/12/15 03:02:15;;;;;;;28.25;11.32;;;9.70;99.90;;;;;;20674877;28;20038;-43
2021/12/15 03:22:42;;;;;;;29.90;8.93;;;9.80;99.90;;;;;;20606230;28;20054;-44
2021/12/15 03:43:16;;;;;;;27.35;10.10;;;9.70;99.90;;;;;;20600942;28;20042;-44
2021/12/15 03:53:18;;;;;;;27.95;9.07;;;9.70;99.90;;;;;;20604198;28;20061;-43
2021/12/15 04:03:21;;;;;;;35.10;10.60;;;9.70;99.90;;;;;;20599657;28;20383;-43
2021/12/15 04:13:23;;;;;;;28.40;10.45;;;9.70;99.90;;;;;;20648032;28;20042;-43
2021/12/15 04:23:24;;;;;;;21.73;8.30;;;9.70;99.90;;;;;;20685403;28;20513;-43
2021/12/15 04:33:34;;;;;;;26.73;9.48;;;9.70;99.90;;;;;;20678567;28;20053;-43
2021/12/15 04:43:39;;;;;;;25.85;9.70;;;9.70;99.90;;;;;;20678733;28;20532;-43
2021/12/15 04:53:41;;;;;;;25.35;10.80;;;9.80;99.90;;;;;;20677948;28;20063;-43
2021/12/15 05:03:44;;;;;;;24.42;9.88;;;9.80;99.90;;;;;;20679427;28;20536;-43
2021/12/15 05:13:45;;;;;;;32.67;9.45;;;9.80;99.90;;;;;;20678378;28;20053;-44
2021/12/15 05:23:53;;;;;;;22.83;7.78;;;9.80;99.90;;;;;;20669900;28;20064;-43
2021/12/15 05:33:55;;;;;;;24.27;10.02;;;9.90;99.90;;;;;;20694497;28;20462;-43
2021/12/15 05:43:56;;;;;;;28.17;10.15;;;9.90;99.90;;;;;;20716672;28;20045;-43
2021/12/15 05:53:57;;;;;;;25.25;8.32;;;10.00;99.90;;;;;;20737674;28;20386;-43
2021/12/15 06:04:00;;;;;;;25.88;7.78;;;10.00;99.90;;;;;;20739372;28;20861;-43
2021/12/15 06:14:02;;;;;;;35.60;10.75;;;10.00;99.90;;;;;;20735311;28;20045;-43
2021/12/15 06:24:04;;;;;;;30.92;8.02;;;10.00;99.90;;;;;;20736168;28;20497;-44
2021/12/15 06:34:05;;;;;;;29.10;9.57;;;9.90;99.90;;;;;;20736872;28;20026;-43
2021/12/15 06:44:07;;;;;;;35.15;10.27;;;9.90;99.90;;;;;;20715407;28;20432;-43
2021/12/15 07:04:28;;;;;;;43.47;10.70;;;9.90;99.90;;;;;;20732208;28;20060;-43
2021/12/15 07:14:31;;;;;;;30.88;8.25;;;9.90;99.90;;;;;;20698395;28;20046;-44
2021/12/15 07:24:34;;;;;;;35.22;9.50;;;10.00;99.90;;;;;;20730719;28;20046;-43
2021/12/15 07:34:35;;;;;;;35.03;11.90;;;10.00;99.90;;;;;;20727834;28;20056;-43
2021/12/15 07:44:37;;;;;;;38.58;10.63;;;10.00;99.90;;;;;;20731355;28;20045;-44
2021/12/15 07:54:39;;;;;;;26.05;8.50;;;10.00;99.90;;;;;;20733302;28;20674;-43
2021/12/15 08:04:41;;;;;;;29.60;10.27;;;10.00;99.90;;;;;;20733651;28;20499;-43
2021/12/15 08:14:42;;;;;;;30.25;9.75;;;10.00;99.90;;;;;;20730334;28;20042;-43
2021/12/15 08:24:43;;;;;;;32.25;8.88;;;10.10;99.90;;;;;;20725252;28;20042;-43
2021/12/15 08:34:45;;;;;;;29.25;8.88;;;10.10;99.90;;;;;;20730714;28;20030;-44
2021/12/15 08:44:46;;;;;;;28.77;9.25;;;10.10;99.90;;;;;;20726452;28;20037;-43
2021/12/15 08:54:47;;;;;;;31.83;7.75;;;10.10;99.90;;;;;;20726840;28;20034;-43
2021/12/15 09:04:49;;;;;;;36.30;9.57;;;10.20;99.90;;;;;;20726344;28;20230;-43
2021/12/15 09:14:50;;;;;;;22.75;8.07;;;10.20;99.90;;;;;;20729736;28;20046;-43
2021/12/15 09:24:51;;;;;;;24.77;9.50;;;10.30;99.90;;;;;;20730977;28;20052;-43
2021/12/15 09:34:54;;;;;;;18.92;7.43;;;10.30;99.90;;;;;;20731860;28;20038;-43
2021/12/15 09:45:02;;;;;;;26.42;8.27;;;10.40;99.90;;;;;;20730723;28;20053;-43
2021/12/15 10:05:45;;;;;;;21.50;7.00;;;10.50;99.90;;;;;;20734750;28;20046;-43
2021/12/15 10:26:09;;;;;;;18.27;6.97;;;10.60;99.90;;;;;;20744980;28;21416;-44
2021/12/15 10:36:15;;;;;;;21.25;7.28;;;10.60;99.90;;;;;;20746282;28;20069;-43
2021/12/15 10:46:23;;;;;;;13.90;5.50;;;10.70;99.90;;;;;;20742238;28;20533;-44
2021/12/15 10:56:29;;;;;;;15.60;5.93;;;10.80;99.90;;;;;;20741943;28;20041;-44
2021/12/15 11:06:36;;;;;;;13.20;4.90;;;10.90;99.90;;;;;;20741279;28;20282;-44
2021/12/15 11:16:37;;;;;;;14.02;5.25;;;10.90;99.90;;;;;;20737836;28;20053;-44
2021/12/15 11:26:38;;;;;;;8.65;3.70;;;11.00;99.90;;;;;;20745758;28;20506;-43
2021/12/15 11:36:44;;;;;;;14.80;4.47;;;11.00;99.90;;;;;;20745961;28;20038;-44
2021/12/15 11:46:52;;;;;;;11.32;3.65;;;11.10;99.90;;;;;;20746450;28;20049;-44
2021/12/15 11:56:55;;;;;;;8.35;3.08;;;11.10;99.90;;;;;;20739280;28;20494;-43
2021/12/15 12:07:19;;;;;;;5.53;2.03;;;11.20;99.90;;;;;;20739340;28;20506;-44
2021/12/15 12:17:23;;;;;;;8.48;2.47;;;11.30;99.90;;;;;;20688943;28;20049;-43
2021/12/15 12:27:28;;;;;;;10.50;3.17;;;11.20;99.90;;;;;;20734594;28;20053;-43
2021/12/15 12:37:29;;;;;;;4.43;2.22;;;11.20;99.90;;;;;;20732622;28;20037;-43
2021/12/15 12:47:39;;;;;;;3.45;1.20;;;11.20;99.90;;;;;;20733092;28;20113;-43
2021/12/15 13:08:03;;;;;;;10.13;2.13;;;11.20;99.90;;;;;;20720283;28;20033;-43
2021/12/15 13:18:11;;;;;;;6.72;2.15;;;11.20;99.90;;;;;;20722434;28;20041;-44
2021/12/15 13:38:43;;;;;;;5.38;1.60;;;11.10;99.90;;;;;;20722964;28;20045;-43
2021/12/15 13:48:59;;;;;;;7.05;1.52;;;11.00;99.90;;;;;;20721831;28;20038;-43
2021/12/15 13:59:38;;;;;;;2.78;1.50;;;11.00;99.90;;;;;;20743078;28;21341;-43
2021/12/15 14:09:39;;;;;;;7.47;2.88;;;11.00;99.90;;;;;;20743533;28;20054;-44
2021/12/15 14:19:41;;;;;;;10.48;3.25;;;11.00;99.90;;;;;;20743344;28;20038;-44
2021/12/15 14:29:43;;;;;;;9.32;4.03;;;10.90;99.90;;;;;;20743126;28;20065;-43
2021/12/15 14:39:47;;;;;;;13.25;4.07;;;10.90;99.90;;;;;;20740312;28;20033;-43
2021/12/15 14:49:52;;;;;;;9.50;3.70;;;10.80;99.90;;;;;;20728553;28;21017;-43
2021/12/15 15:00:19;;;;;;;8.98;3.85;;;10.80;99.90;;;;;;20739441;28;20037;-43
2021/12/15 15:10:24;;;;;;;7.70;3.75;;;10.80;99.90;;;;;;20742018;28;20072;-43
2021/12/15 15:20:28;;;;;;;11.23;4.57;;;10.80;99.90;;;;;;20745619;28;20127;-44
2021/12/15 15:30:33;;;;;;;14.18;4.53;;;10.70;99.90;;;;;;20740957;28;20049;-44
2021/12/15 15:40:43;;;;;;;12.30;4.53;;;10.70;99.90;;;;;;20742190;28;20056;-43
2021/12/15 15:50:54;;;;;;;16.17;4.90;;;10.70;99.90;;;;;;20719782;28;20482;-44
2021/12/15 16:00:58;;;;;;;15.10;4.47;;;10.70;99.90;;;;;;20738682;28;20037;-43
2021/12/15 16:11:00;;;;;;;10.18;4.10;;;10.70;99.90;;;;;;20741555;28;20347;-43
2021/12/15 16:31:12;;;;;;;16.40;4.97;;;10.60;99.90;;;;;;20736432;28;20052;-43
2021/12/15 16:41:29;;;;;;;7.43;3.60;;;10.50;99.90;;;;;;20730060;28;20041;-44
2021/12/15 16:51:30;;;;;;;6.63;3.10;;;10.60;99.90;;;;;;20734998;28;20041;-44
2021/12/15 17:01:37;;;;;;;11.57;3.53;;;10.50;99.90;;;;;;20732252;28;20041;-44
2021/12/15 17:11:40;;;;;;;10.55;3.00;;;10.40;99.90;;;;;;20739628;28;20044;-43
2021/12/15 17:21:41;;;;;;;9.70;3.10;;;10.40;99.90;;;;;;20746363;28;20527;-43
2021/12/15 17:31:52;;;;;;;9.02;3.53;;;10.40;99.90;;;;;;20756605;28;20061;-43
2021/12/15 17:41:59;;;;;;;6.85;2.92;;;10.40;99.90;;;;;;20755677;28;20037;-43
2021/12/15 17:52:15;;;;;;;6.40;3.28;;;10.30;99.90;;;;;;20741956;28;20042;-43
2021/12/15 18:02:19;;;;;;;11.13;2.97;;;10.30;99.90;;;;;;20715841;28;20033;-43
2021/12/15 18:12:27;;;;;;;6.53;3.03;;;10.30;99.90;;;;;;20714978;28;20371;-43
2021/12/15 18:22:28;;;;;;;8.93;3.33;;;10.30;99.90;;;;;;20701208;28;20630;-43
2021/12/15 18:32:30;;;;;;;8.18;3.00;;;10.30;99.90;;;;;;20704232;28;20049;-43
2021/12/15 18:42:31;;;;;;;12.93;3.33;;;10.20;99.90;;;;;;20681581;28;20041;-44
2021/12/15 18:52:33;;;;;;;7.38;2.65;;;10.30;99.90;;;;;;20732719;28;20034;-43
2021/12/15 19:02:35;;;;;;;13.50;3.55;;;10.20;99.90;;;;;;20682468;28;20410;-45
2021/12/15 19:12:37;;;;;;;10.95;3.03;;;10.20;99.90;;;;;;20711199;28;20534;-43
2021/12/15 19:22:39;;;;;;;7.50;3.53;;;10.00;99.90;;;;;;20705397;28;20180;-44
2021/12/15 19:32:40;;;;;;;11.43;3.65;;;9.80;99.90;;;;;;20697024;28;20046;-43
2021/12/15 19:42:41;;;;;;;11.57;3.90;;;9.80;99.90;;;;;;20683070;28;20044;-43
2021/12/15 19:52:42;;;;;;;11.15;4.90;;;9.60;99.90;;;;;;20699114;28;20050;-43
2021/12/15 20:02:46;;;;;;;7.65;3.40;;;9.60;99.90;;;;;;20685935;28;20270;-43
2021/12/15 20:12:57;;;;;;;11.53;4.10;;;9.50;99.90;;;;;;20678141;28;20387;-43
2021/12/15 20:22:59;;;;;;;10.57;3.47;;;9.40;99.90;;;;;;20710935;28;20045;-44
2021/12/15 20:33:00;;;;;;;13.13;3.67;;;9.30;99.90;;;;;;20674228;28;21120;-44
2021/12/15 20:43:04;;;;;;;9.93;4.60;;;9.10;99.90;;;;;;20679737;28;20034;-44
2021/12/15 20:53:09;;;;;;;10.43;3.95;;;9.00;99.90;;;;;;20660252;28;20053;-43
2021/12/15 21:03:10;;;;;;;12.25;4.70;;;8.90;99.90;;;;;;20667026;28;20145;-43
2021/12/15 21:13:11;;;;;;;8.48;3.78;;;8.80;99.90;;;;;;20682167;28;20041;-43
2021/12/15 21:23:14;;;;;;;12.23;4.75;;;8.70;99.90;;;;;;20694690;28;20037;-43
2021/12/15 21:33:15;;;;;;;10.27;4.68;;;8.60;99.90;;;;;;20651352;28;20060;-43
2021/12/15 21:43:17;;;;;;;14.05;4.75;;;8.50;99.90;;;;;;20703350;28;20056;-43
2021/12/15 21:53:19;;;;;;;13.18;5.15;;;8.50;99.90;;;;;;20676327;28;20030;-43
2021/12/15 22:03:26;;;;;;;20.90;6.15;;;8.40;99.90;;;;;;20706663;28;20037;-43
2021/12/15 22:13:28;;;;;;;13.83;6.03;;;8.30;99.90;;;;;;20681878;28;20041;-43
2021/12/15 22:23:30;;;;;;;13.55;4.82;;;8.30;99.90;;;;;;20693766;28;20034;-43
2021/12/15 22:33:38;;;;;;;15.50;4.28;;;8.20;99.90;;;;;;20704619;28;20029;-43
2021/12/15 22:43:42;;;;;;;10.45;3.95;;;8.00;99.90;;;;;;20680957;28;20048;-43
2021/12/15 22:53:43;;;;;;;15.20;5.15;;;7.90;99.90;;;;;;20715439;28;20045;-43
2021/12/15 23:03:47;;;;;;;14.00;3.88;;;7.70;99.90;;;;;;20683950;28;20037;-43
2021/12/15 23:13:51;;;;;;;11.85;4.68;;;7.70;99.90;;;;;;20683202;28;20030;-43
2021/12/15 23:23:53;;;;;;;10.40;4.82;;;7.70;99.90;;;;;;20679421;28;20500;-43
2021/12/15 23:33:54;;;;;;;15.25;4.93;;;7.70;99.90;;;;;;20678839;28;20124;-43
